sensor_id;sensor_type;location;lat;lon;timestamp;pressure;altitude;pressure_sealevel;temperature;humidity
76858;BME280;65830;0.000;0.000;2023-07-20T00:02:14;99251.50;;;25.91;49.64
76858;BME280;65830;0.000;0.000;2023-07-20T00:04:40;99260.09;;;25.88;49.54
76858;BME280;65830;0.000;0.000;2023-07-20T00:07:05;99273.63;;;26.00;49.33
76858;BME280;65830;0.000;0.000;2023-07-20T00:09:31;99273.03;;;25.81;49.64
76858;BME280;65830;0.000;0.000;2023-07-20T00:11:57;99263.63;;;25.88;49.25
76858;BME280;65830;0.000;0.000;2023-07-20T00:14:23;99272.41;;;25.90;48.90
76858;BME280;65830;0.000;0.000;2023-07-20T00:16:51;99263.56;;;26.00;48.23
76858;BME280;65830;0.000;0.000;2023-07-20T00:19:24;99253.94;;;26.09;47.48
76858;BME280;65830;0.000;0.000;2023-07-20T00:21:50;99239.28;;;26.32;46.68
76858;BME280;65830;0.000;0.000;2023-07-20T00:24:16;99213.09;;;26.48;45.91
76858;BME280;65830;0.000;0.000;2023-07-20T00:26:41;99207.69;;;26.53;45.22
76858;BME280;65830;0.000;0.000;2023-07-20T00:29:06;99193.22;;;26.70;45.32
76858;BME280;65830;0.000;0.000;2023-07-20T00:31:32;99189.03;;;26.84;45.86
76858;BME280;65830;0.000;0.000;2023-07-20T00:33:58;99186.38;;;26.94;44.46
76858;BME280;65830;0.000;0.000;2023-07-20T00:36:23;99192.72;;;27.05;44.22
76858;BME280;65830;0.000;0.000;2023-07-20T00:38:48;99176.22;;;27.17;44.15
76858;BME280;65830;0.000;0.000;2023-07-20T00:41:15;99174.63;;;27.21;44.55
76858;BME280;65830;0.000;0.000;2023-07-20T00:43:41;99161.09;;;27.26;44.54
76858;BME280;65830;0.000;0.000;2023-07-20T00:46:07;99150.25;;;27.31;42.91
76858;BME280;65830;0.000;0.000;2023-07-20T00:48:33;99153.00;;;27.37;42.62
76858;BME280;65830;0.000;0.000;2023-07-20T00:50:59;99144.03;;;27.41;43.77
76858;BME280;65830;0.000;0.000;2023-07-20T00:53:25;99160.09;;;27.43;44.17
76858;BME280;65830;0.000;0.000;2023-07-20T00:55:52;99167.78;;;27.46;43.45
76858;BME280;65830;0.000;0.000;2023-07-20T00:58:18;99169.25;;;27.64;41.54
76858;BME280;65830;0.000;0.000;2023-07-20T01:00:44;99173.94;;;27.73;41.10
76858;BME280;65830;0.000;0.000;2023-07-20T01:03:09;99171.53;;;27.82;40.24
76858;BME280;65830;0.000;0.000;2023-07-20T01:05:40;99181.75;;;27.97;40.25
76858;BME280;65830;0.000;0.000;2023-07-20T01:08:10;99172.97;;;27.90;40.87
76858;BME280;65830;0.000;0.000;2023-07-20T01:10:41;99162.56;;;27.87;41.46
76858;BME280;65830;0.000;0.000;2023-07-20T01:13:09;99163.16;;;27.94;40.64
76858;BME280;65830;0.000;0.000;2023-07-20T01:15:37;99163.97;;;27.95;41.36
76858;BME280;65830;0.000;0.000;2023-07-20T01:18:03;99150.09;;;27.96;41.73
76858;BME280;65830;0.000;0.000;2023-07-20T01:20:30;99147.09;;;27.98;41.86
76858;BME280;65830;0.000;0.000;2023-07-20T01:26:02;99132.69;;;28.07;41.21
76858;BME280;65830;0.000;0.000;2023-07-20T01:31:24;99126.41;;;28.02;43.11
76858;BME280;65830;0.000;0.000;2023-07-20T01:33:50;99123.34;;;27.88;43.81
76858;BME280;65830;0.000;0.000;2023-07-20T01:36:17;99119.72;;;27.82;43.14
76858;BME280;65830;0.000;0.000;2023-07-20T01:38:43;99128.22;;;27.86;43.76
76858;BME280;65830;0.000;0.000;2023-07-20T01:41:09;99127.06;;;27.77;42.88
76858;BME280;65830;0.000;0.000;2023-07-20T01:43:35;99126.75;;;27.68;42.85
76858;BME280;65830;0.000;0.000;2023-07-20T01:46:01;99124.28;;;27.66;43.61
76858;BME280;65830;0.000;0.000;2023-07-20T01:48:27;99126.75;;;27.68;43.30
76858;BME280;65830;0.000;0.000;2023-07-20T01:50:52;99122.66;;;27.65;43.44
76858;BME280;65830;0.000;0.000;2023-07-20T01:53:19;99119.38;;;27.63;43.56
76858;BME280;65830;0.000;0.000;2023-07-20T01:55:47;99119.41;;;27.68;44.24
76858;BME280;65830;0.000;0.000;2023-07-20T01:58:13;99121.00;;;27.64;43.79
76858;BME280;65830;0.000;0.000;2023-07-20T02:00:38;99124.00;;;27.63;43.92
76858;BME280;65830;0.000;0.000;2023-07-20T02:03:04;99127.56;;;27.68;43.19
76858;BME280;65830;0.000;0.000;2023-07-20T02:05:29;99121.34;;;27.78;42.28
76858;BME280;65830;0.000;0.000;2023-07-20T02:07:55;99136.16;;;27.87;42.08
76858;BME280;65830;0.000;0.000;2023-07-20T02:10:21;99127.16;;;27.92;42.48
76858;BME280;65830;0.000;0.000;2023-07-20T02:12:47;99136.16;;;27.87;41.69
76858;BME280;65830;0.000;0.000;2023-07-20T02:15:13;99133.63;;;27.81;42.47
76858;BME280;65830;0.000;0.000;2023-07-20T02:17:42;99136.91;;;27.78;41.75
76858;BME280;65830;0.000;0.000;2023-07-20T02:20:08;99131.16;;;27.74;42.25
76858;BME280;65830;0.000;0.000;2023-07-20T02:22:37;99142.88;;;27.74;41.95
76858;BME280;65830;0.000;0.000;2023-07-20T02:25:03;99137.41;;;27.74;41.88
76858;BME280;65830;0.000;0.000;2023-07-20T02:27:29;99139.59;;;27.72;43.12
76858;BME280;65830;0.000;0.000;2023-07-20T02:29:55;99143.41;;;27.71;42.61
76858;BME280;65830;0.000;0.000;2023-07-20T02:32:21;99143.94;;;27.68;43.07
76858;BME280;65830;0.000;0.000;2023-07-20T02:34:47;99153.97;;;27.63;43.44
76858;BME280;65830;0.000;0.000;2023-07-20T02:37:13;99130.28;;;27.63;42.93
76858;BME280;65830;0.000;0.000;2023-07-20T02:39:38;99131.94;;;27.69;43.27
76858;BME280;65830;0.000;0.000;2023-07-20T02:42:04;99129.53;;;27.78;43.97
76858;BME280;65830;0.000;0.000;2023-07-20T02:44:30;99125.41;;;27.70;44.09
76858;BME280;65830;0.000;0.000;2023-07-20T02:46:55;99125.94;;;27.67;44.13
76858;BME280;65830;0.000;0.000;2023-07-20T02:49:21;99132.94;;;27.53;43.55
76858;BME280;65830;0.000;0.000;2023-07-20T02:51:46;99131.25;;;27.42;43.31
76858;BME280;65830;0.000;0.000;2023-07-20T02:54:12;99128.47;;;27.37;43.02
76858;BME280;65830;0.000;0.000;2023-07-20T02:56:37;99126.88;;;27.41;43.91
76858;BME280;65830;0.000;0.000;2023-07-20T02:59:03;99117.63;;;27.42;43.93
76858;BME280;65830;0.000;0.000;2023-07-20T03:01:29;99115.16;;;27.40;45.03
76858;BME280;65830;0.000;0.000;2023-07-20T03:03:55;99115.97;;;27.41;44.26
76858;BME280;65830;0.000;0.000;2023-07-20T03:06:21;99127.72;;;27.46;45.10
76858;BME280;65830;0.000;0.000;2023-07-20T03:08:46;99117.38;;;27.43;44.31
76858;BME280;65830;0.000;0.000;2023-07-20T03:11:19;99121.91;;;27.32;43.21
76858;BME280;65830;0.000;0.000;2023-07-20T03:13:44;99117.78;;;27.25;44.10
76858;BME280;65830;0.000;0.000;2023-07-20T03:16:11;99128.06;;;27.23;44.24
76858;BME280;65830;0.000;0.000;2023-07-20T03:18:37;99120.50;;;27.25;44.70
76858;BME280;65830;0.000;0.000;2023-07-20T03:21:04;99121.06;;;27.27;44.36
76858;BME280;65830;0.000;0.000;2023-07-20T03:23:29;99119.44;;;27.26;43.82
76858;BME280;65830;0.000;0.000;2023-07-20T03:25:55;99114.69;;;27.16;44.14
76858;BME280;65830;0.000;0.000;2023-07-20T03:28:22;99117.91;;;27.08;44.02
76858;BME280;65830;0.000;0.000;2023-07-20T03:30:52;99119.75;;;27.02;44.86
76858;BME280;65830;0.000;0.000;2023-07-20T03:33:18;99120.88;;;27.06;44.69
76858;BME280;65830;0.000;0.000;2023-07-20T03:35:43;99120.06;;;27.06;44.96
76858;BME280;65830;0.000;0.000;2023-07-20T03:38:09;99114.63;;;27.06;45.14
76858;BME280;65830;0.000;0.000;2023-07-20T03:40:34;99107.53;;;27.05;45.64
76858;BME280;65830;0.000;0.000;2023-07-20T03:43:00;99105.91;;;27.04;45.57
76858;BME280;65830;0.000;0.000;2023-07-20T03:45:26;99102.06;;;27.05;45.90
76858;BME280;65830;0.000;0.000;2023-07-20T03:47:51;99104.25;;;27.03;46.37
76858;BME280;65830;0.000;0.000;2023-07-20T03:50:17;99093.59;;;27.01;46.11
76858;BME280;65830;0.000;0.000;2023-07-20T03:52:42;99106.16;;;27.02;46.18
76858;BME280;65830;0.000;0.000;2023-07-20T03:55:08;99099.34;;;27.05;46.40
76858;BME280;65830;0.000;0.000;2023-07-20T03:57:33;99105.09;;;27.08;46.40
76858;BME280;65830;0.000;0.000;2023-07-20T03:59:59;99104.00;;;27.09;46.62
76858;BME280;65830;0.000;0.000;2023-07-20T04:02:24;99107.00;;;27.08;44.95
76858;BME280;65830;0.000;0.000;2023-07-20T04:04:50;99112.22;;;27.14;45.86
76858;BME280;65830;0.000;0.000;2023-07-20T04:07:16;99114.94;;;27.14;45.49
76858;BME280;65830;0.000;0.000;2023-07-20T04:09:42;99116.84;;;27.14;46.38
76858;BME280;65830;0.000;0.000;2023-07-20T04:12:07;99116.06;;;27.19;45.41
76858;BME280;65830;0.000;0.000;2023-07-20T04:14:33;99115.25;;;27.18;45.81
76858;BME280;65830;0.000;0.000;2023-07-20T04:16:58;99112.53;;;27.18;46.97
76858;BME280;65830;0.000;0.000;2023-07-20T04:19:25;99112.53;;;27.18;47.05
76858;BME280;65830;0.000;0.000;2023-07-20T04:21:51;99120.16;;;27.21;46.33
76858;BME280;65830;0.000;0.000;2023-07-20T04:24:16;99119.09;;;27.22;46.93
76858;BME280;65830;0.000;0.000;2023-07-20T04:26:42;99122.06;;;27.21;46.64
76858;BME280;65830;0.000;0.000;2023-07-20T04:29:08;99124.22;;;27.19;45.95
76858;BME280;65830;0.000;0.000;2023-07-20T04:31:36;99128.06;;;27.18;47.24
76858;BME280;65830;0.000;0.000;2023-07-20T04:34:02;99133.69;;;27.11;46.67
76858;BME280;65830;0.000;0.000;2023-07-20T04:36:29;99135.88;;;27.09;46.26
76858;BME280;65830;0.000;0.000;2023-07-20T04:38:54;99132.59;;;27.07;46.07
76858;BME280;65830;0.000;0.000;2023-07-20T04:41:21;99135.84;;;27.04;46.70
76858;BME280;65830;0.000;0.000;2023-07-20T04:43:49;99137.13;;;26.96;47.09
76858;BME280;65830;0.000;0.000;2023-07-20T04:46:22;99135.78;;;26.99;46.17
76858;BME280;65830;0.000;0.000;2023-07-20T04:48:47;99135.78;;;26.99;46.39
76858;BME280;65830;0.000;0.000;2023-07-20T04:51:14;99146.44;;;27.00;46.04
76858;BME280;65830;0.000;0.000;2023-07-20T04:53:39;99155.97;;;27.03;46.64
76858;BME280;65830;0.000;0.000;2023-07-20T04:56:07;99144.47;;;26.95;46.28
76858;BME280;65830;0.000;0.000;2023-07-20T04:58:33;99155.88;;;26.92;47.10
76858;BME280;65830;0.000;0.000;2023-07-20T05:00:59;99158.03;;;26.90;46.97
76858;BME280;65830;0.000;0.000;2023-07-20T05:03:24;99154.22;;;26.91;46.92
76858;BME280;65830;0.000;0.000;2023-07-20T05:05:50;99153.66;;;26.89;47.52
76858;BME280;65830;0.000;0.000;2023-07-20T05:08:15;99158.34;;;26.94;46.66
76858;BME280;65830;0.000;0.000;2023-07-20T05:10:42;99149.34;;;26.93;46.58
76858;BME280;65830;0.000;0.000;2023-07-20T05:13:08;99154.28;;;26.97;46.94
76858;BME280;65830;0.000;0.000;2023-07-20T05:15:33;99154.28;;;26.97;47.15
76858;BME280;65830;0.000;0.000;2023-07-20T05:18:00;99149.41;;;26.99;47.11
76858;BME280;65830;0.000;0.000;2023-07-20T05:20:26;99145.88;;;26.98;46.92
76858;BME280;65830;0.000;0.000;2023-07-20T05:22:53;99149.72;;;27.02;46.50
76858;BME280;65830;0.000;0.000;2023-07-20T05:25:19;99144.56;;;27.06;46.60
76858;BME280;65830;0.000;0.000;2023-07-20T05:27:44;99139.69;;;27.08;45.82
76858;BME280;65830;0.000;0.000;2023-07-20T05:30:11;99140.72;;;27.02;45.81
76858;BME280;65830;0.000;0.000;2023-07-20T05:32:36;99138.84;;;27.07;46.20
76858;BME280;65830;0.000;0.000;2023-07-20T05:35:02;99138.34;;;27.10;46.63
76858;BME280;65830;0.000;0.000;2023-07-20T05:37:27;99138.38;;;27.16;45.83
76858;BME280;65830;0.000;0.000;2023-07-20T05:39:53;99142.22;;;27.20;46.26
76858;BME280;65830;0.000;0.000;2023-07-20T05:42:19;99130.31;;;27.26;46.29
76858;BME280;65830;0.000;0.000;2023-07-20T05:44:44;99127.91;;;27.34;45.60
76858;BME280;65830;0.000;0.000;2023-07-20T05:47:10;99136.13;;;27.40;45.63
76858;BME280;65830;0.000;0.000;2023-07-20T05:49:35;99127.97;;;27.45;44.54
76858;BME280;65830;0.000;0.000;2023-07-20T05:52:01;99122.00;;;27.48;45.24
76858;BME280;65830;0.000;0.000;2023-07-20T05:54:26;99121.47;;;27.51;45.54
76858;BME280;65830;0.000;0.000;2023-07-20T05:56:52;99126.97;;;27.56;44.70
76858;BME280;65830;0.000;0.000;2023-07-20T05:59:18;99116.06;;;27.56;44.27
76858;BME280;65830;0.000;0.000;2023-07-20T06:01:45;99117.44;;;27.59;44.36
76858;BME280;65830;0.000;0.000;2023-07-20T06:04:11;99113.38;;;27.66;44.46
76858;BME280;65830;0.000;0.000;2023-07-20T06:06:37;99106.31;;;27.70;43.99
76858;BME280;65830;0.000;0.000;2023-07-20T06:09:02;99094.66;;;27.75;43.99
76858;BME280;65830;0.000;0.000;2023-07-20T06:11:32;99099.84;;;27.82;43.99
76858;BME280;65830;0.000;0.000;2023-07-20T06:13:58;99098.81;;;27.88;44.28
76858;BME280;65830;0.000;0.000;2023-07-20T06:16:23;99095.56;;;27.96;43.91
76858;BME280;65830;0.000;0.000;2023-07-20T06:18:48;99096.69;;;28.05;43.85
76858;BME280;65830;0.000;0.000;2023-07-20T06:21:14;99096.69;;;28.10;43.19
76858;BME280;65830;0.000;0.000;2023-07-20T06:23:40;99094.81;;;28.16;43.60
76858;BME280;65830;0.000;0.000;2023-07-20T06:26:06;99085.84;;;28.21;43.47
76858;BME280;65830;0.000;0.000;2023-07-20T06:28:32;99091.84;;;28.28;42.81
76858;BME280;65830;0.000;0.000;2023-07-20T06:31:01;99086.94;;;28.40;42.27
76858;BME280;65830;0.000;0.000;2023-07-20T06:33:27;99086.44;;;28.48;41.71
76858;BME280;65830;0.000;0.000;2023-07-20T06:35:52;99085.88;;;28.46;42.65
76858;BME280;65830;0.000;0.000;2023-07-20T06:38:18;99086.16;;;28.50;41.76
76858;BME280;65830;0.000;0.000;2023-07-20T06:40:45;99085.91;;;28.51;42.23
76858;BME280;65830;0.000;0.000;2023-07-20T06:43:11;99084.53;;;28.54;41.50
76858;BME280;65830;0.000;0.000;2023-07-20T06:45:36;99085.38;;;28.60;41.94
76858;BME280;65830;0.000;0.000;2023-07-20T06:48:02;99086.75;;;28.62;40.99
76858;BME280;65830;0.000;0.000;2023-07-20T06:50:28;99080.47;;;28.62;40.96
76858;BME280;65830;0.000;0.000;2023-07-20T06:52:54;99085.38;;;28.65;41.27
76858;BME280;65830;0.000;0.000;2023-07-20T06:55:19;99091.38;;;28.72;40.88
76858;BME280;65830;0.000;0.000;2023-07-20T06:57:45;99076.66;;;28.83;40.69
76858;BME280;65830;0.000;0.000;2023-07-20T07:00:29;99083.75;;;28.95;40.78
76858;BME280;65830;0.000;0.000;2023-07-20T07:02:54;99078.00;;;29.01;41.76
76858;BME280;65830;0.000;0.000;2023-07-20T07:05:20;99085.94;;;29.03;39.86
76858;BME280;65830;0.000;0.000;2023-07-20T07:07:45;99090.28;;;29.09;41.76
76858;BME280;65830;0.000;0.000;2023-07-20T07:10:13;99081.84;;;29.26;40.33
76858;BME280;65830;0.000;0.000;2023-07-20T07:12:39;99084.81;;;29.29;40.02
76858;BME280;65830;0.000;0.000;2023-07-20T07:15:04;99083.72;;;29.30;40.57
76858;BME280;65830;0.000;0.000;2023-07-20T07:17:33;99077.72;;;29.34;41.53
76858;BME280;65830;0.000;0.000;2023-07-20T07:19:58;99078.81;;;29.38;39.04
76858;BME280;65830;0.000;0.000;2023-07-20T07:22:24;99071.69;;;29.42;41.97
76858;BME280;65830;0.000;0.000;2023-07-20T07:24:52;99074.38;;;29.47;39.01
76858;BME280;65830;0.000;0.000;2023-07-20T07:27:17;99072.78;;;29.46;40.30
76858;BME280;65830;0.000;0.000;2023-07-20T07:29:43;99076.00;;;29.53;39.29
76858;BME280;65830;0.000;0.000;2023-07-20T07:32:12;99074.91;;;29.59;38.80
76858;BME280;65830;0.000;0.000;2023-07-20T07:34:38;99076.78;;;29.69;37.62
76858;BME280;65830;0.000;0.000;2023-07-20T07:37:04;99068.56;;;29.69;38.54
76858;BME280;65830;0.000;0.000;2023-07-20T07:39:29;99066.69;;;29.69;39.96
76858;BME280;65830;0.000;0.000;2023-07-20T07:41:55;99062.00;;;29.75;39.49
76858;BME280;65830;0.000;0.000;2023-07-20T07:44:21;99052.72;;;29.81;38.23
76858;BME280;65830;0.000;0.000;2023-07-20T07:46:46;99062.81;;;29.81;39.60
76858;BME280;65830;0.000;0.000;2023-07-20T07:49:12;99065.53;;;29.86;39.46
76858;BME280;65830;0.000;0.000;2023-07-20T07:51:37;99066.88;;;29.94;38.55
76858;BME280;65830;0.000;0.000;2023-07-20T07:54:03;99059.47;;;29.99;38.51
76858;BME280;65830;0.000;0.000;2023-07-20T07:56:29;99066.28;;;29.97;38.80
76858;BME280;65830;0.000;0.000;2023-07-20T07:58:54;99061.94;;;29.96;37.77
76858;BME280;65830;0.000;0.000;2023-07-20T08:01:20;99062.47;;;29.98;39.09
76858;BME280;65830;0.000;0.000;2023-07-20T08:03:45;99064.34;;;30.02;39.07
76858;BME280;65830;0.000;0.000;2023-07-20T08:06:15;99066.28;;;30.07;39.74
76858;BME280;65830;0.000;0.000;2023-07-20T08:08:41;99065.34;;;30.17;38.30
76858;BME280;65830;0.000;0.000;2023-07-20T08:11:07;99067.28;;;30.21;36.64
76858;BME280;65830;0.000;0.000;2023-07-20T08:13:33;99058.47;;;30.24;37.79
76858;BME280;65830;0.000;0.000;2023-07-20T08:15:58;99064.22;;;30.33;38.01
76858;BME280;65830;0.000;0.000;2023-07-20T08:18:24;99066.38;;;30.36;37.89
76858;BME280;65830;0.000;0.000;2023-07-20T08:20:49;99068.28;;;30.41;37.42
76858;BME280;65830;0.000;0.000;2023-07-20T08:23:15;99072.91;;;30.40;36.70
76858;BME280;65830;0.000;0.000;2023-07-20T08:25:41;99063.03;;;30.44;36.34
76858;BME280;65830;0.000;0.000;2023-07-20T08:28:10;99071.50;;;30.48;39.20
76858;BME280;65830;0.000;0.000;2023-07-20T08:30:39;99062.38;;;30.58;38.24
76858;BME280;65830;0.000;0.000;2023-07-20T08:33:05;99073.78;;;30.70;38.22
76858;BME280;65830;0.000;0.000;2023-07-20T08:35:30;99082.06;;;30.65;40.14
76858;BME280;65830;0.000;0.000;2023-07-20T08:37:56;99077.38;;;30.65;37.83
76858;BME280;65830;0.000;0.000;2023-07-20T08:40:21;99070.75;;;30.72;40.02
76858;BME280;65830;0.000;0.000;2023-07-20T08:42:47;99071.56;;;30.72;38.59
76858;BME280;65830;0.000;0.000;2023-07-20T08:45:13;99067.78;;;30.68;40.84
76858;BME280;65830;0.000;0.000;2023-07-20T08:47:39;99069.97;;;30.71;40.28
76858;BME280;65830;0.000;0.000;2023-07-20T08:50:06;99063.38;;;30.72;37.71
76858;BME280;65830;0.000;0.000;2023-07-20T08:52:34;99056.13;;;30.86;37.83
76858;BME280;65830;0.000;0.000;2023-07-20T08:54:59;99059.38;;;30.94;37.58
76858;BME280;65830;0.000;0.000;2023-07-20T08:57:28;99059.34;;;30.99;38.94
76858;BME280;65830;0.000;0.000;2023-07-20T08:59:55;99050.06;;;30.95;39.95
76858;BME280;65830;0.000;0.000;2023-07-20T09:02:21;99045.69;;;30.94;37.21
76858;BME280;65830;0.000;0.000;2023-07-20T09:04:50;99041.25;;;30.98;36.67
76858;BME280;65830;0.000;0.000;2023-07-20T09:07:15;99043.31;;;31.11;35.95
76858;BME280;65830;0.000;0.000;2023-07-20T09:09:42;99032.97;;;31.08;36.70
76858;BME280;65830;0.000;0.000;2023-07-20T09:12:14;99021.81;;;31.23;35.81
76858;BME280;65830;0.000;0.000;2023-07-20T09:14:42;99018.25;;;31.23;35.83
76858;BME280;65830;0.000;0.000;2023-07-20T09:17:08;99016.84;;;31.25;36.12
76858;BME280;65830;0.000;0.000;2023-07-20T09:19:37;99023.38;;;31.30;37.57
76858;BME280;65830;0.000;0.000;2023-07-20T09:22:03;99030.00;;;31.28;37.46
76858;BME280;65830;0.000;0.000;2023-07-20T09:24:30;99024.75;;;31.32;37.78
76858;BME280;65830;0.000;0.000;2023-07-20T09:26:57;99010.28;;;31.51;37.13
76858;BME280;65830;0.000;0.000;2023-07-20T09:29:22;99013.38;;;31.44;37.28
76858;BME280;65830;0.000;0.000;2023-07-20T09:31:58;98992.03;;;31.41;37.29
76858;BME280;65830;0.000;0.000;2023-07-20T09:34:23;98987.94;;;31.38;36.46
76858;BME280;65830;0.000;0.000;2023-07-20T09:36:49;98995.56;;;31.41;37.17
76858;BME280;65830;0.000;0.000;2023-07-20T09:39:14;98989.25;;;31.46;37.46
76858;BME280;65830;0.000;0.000;2023-07-20T09:41:40;98992.16;;;31.55;37.24
76858;BME280;65830;0.000;0.000;2023-07-20T09:44:09;98986.72;;;31.50;36.89
76858;BME280;65830;0.000;0.000;2023-07-20T09:46:48;98985.38;;;31.47;37.56
76858;BME280;65830;0.000;0.000;2023-07-20T09:49:14;98979.47;;;31.59;36.20
76858;BME280;65830;0.000;0.000;2023-07-20T09:51:39;98981.00;;;31.70;36.78
76858;BME280;65830;0.000;0.000;2023-07-20T09:54:05;98978.25;;;31.70;35.85
76858;BME280;65830;0.000;0.000;2023-07-20T09:56:31;98977.97;;;31.72;37.74
76858;BME280;65830;0.000;0.000;2023-07-20T09:58:58;98968.09;;;31.71;34.88
76858;BME280;65830;0.000;0.000;2023-07-20T10:01:23;98960.16;;;31.88;35.96
76858;BME280;65830;0.000;0.000;2023-07-20T10:03:54;98961.06;;;32.02;35.25
76858;BME280;65830;0.000;0.000;2023-07-20T10:06:23;98961.72;;;31.94;35.40
76858;BME280;65830;0.000;0.000;2023-07-20T10:08:50;98960.59;;;31.95;35.73
76858;BME280;65830;0.000;0.000;2023-07-20T10:11:17;98954.22;;;32.19;34.95
76858;BME280;65830;0.000;0.000;2023-07-20T10:13:43;98945.41;;;32.03;35.62
76858;BME280;65830;0.000;0.000;2023-07-20T10:18:37;98946.84;;;32.00;35.86
76858;BME280;65830;0.000;0.000;2023-07-20T10:21:03;98933.91;;;32.01;35.59
76858;BME280;65830;0.000;0.000;2023-07-20T10:23:31;98928.22;;;31.97;36.04
76858;BME280;65830;0.000;0.000;2023-07-20T10:25:58;98925.56;;;32.11;35.71
76858;BME280;65830;0.000;0.000;2023-07-20T10:28:24;98927.75;;;31.90;36.53
76858;BME280;65830;0.000;0.000;2023-07-20T10:30:50;98921.25;;;31.86;37.12
76858;BME280;65830;0.000;0.000;2023-07-20T10:33:16;98919.06;;;31.83;36.93
76858;BME280;65830;0.000;0.000;2023-07-20T10:35:53;98915.47;;;31.88;36.52
76858;BME280;65830;0.000;0.000;2023-07-20T10:38:19;98905.88;;;31.85;36.16
76858;BME280;65830;0.000;0.000;2023-07-20T10:40:53;98909.81;;;31.79;36.68
76858;BME280;65830;0.000;0.000;2023-07-20T10:43:19;98910.28;;;31.86;36.11
76858;BME280;65830;0.000;0.000;2023-07-20T10:45:51;98911.88;;;31.87;36.48
76858;BME280;65830;0.000;0.000;2023-07-20T10:50:44;98909.75;;;31.84;36.96
76858;BME280;65830;0.000;0.000;2023-07-20T10:53:11;98917.59;;;31.91;36.12
76858;BME280;65830;0.000;0.000;2023-07-20T10:55:38;98894.63;;;31.86;36.55
76858;BME280;65830;0.000;0.000;2023-07-20T10:58:13;98893.88;;;31.81;36.46
76858;BME280;65830;0.000;0.000;2023-07-20T11:01:01;98896.25;;;32.39;32.30
76858;BME280;65830;0.000;0.000;2023-07-20T11:03:30;98890.91;;;32.62;33.99
76858;BME280;65830;0.000;0.000;2023-07-20T11:05:56;98884.41;;;32.72;33.37
76858;BME280;65830;0.000;0.000;2023-07-20T11:08:38;98883.75;;;32.47;34.81
76858;BME280;65830;0.000;0.000;2023-07-20T11:16:47;98877.06;;;32.53;33.93
76858;BME280;65830;0.000;0.000;2023-07-20T11:21:45;98880.84;;;33.40;28.82
76858;BME280;65830;0.000;0.000;2023-07-20T11:24:11;98881.34;;;33.79;30.48
76858;BME280;65830;0.000;0.000;2023-07-20T11:26:49;98869.03;;;33.76;30.37
76858;BME280;65830;0.000;0.000;2023-07-20T11:29:16;98864.22;;;33.32;31.86
76858;BME280;65830;0.000;0.000;2023-07-20T11:31:42;98865.19;;;33.13;32.05
76858;BME280;65830;0.000;0.000;2023-07-20T11:34:14;98856.94;;;33.13;32.12
76858;BME280;65830;0.000;0.000;2023-07-20T11:36:41;98843.78;;;33.60;28.81
76858;BME280;65830;0.000;0.000;2023-07-20T11:39:10;98843.38;;;34.12;27.93
76858;BME280;65830;0.000;0.000;2023-07-20T11:41:36;98838.47;;;34.32;27.92
76858;BME280;65830;0.000;0.000;2023-07-20T11:44:04;98842.53;;;34.34;29.44
76858;BME280;65830;0.000;0.000;2023-07-20T11:46:31;98845.16;;;34.39;28.83
76858;BME280;65830;0.000;0.000;2023-07-20T11:48:58;98842.31;;;34.22;29.82
76858;BME280;65830;0.000;0.000;2023-07-20T11:51:24;98840.44;;;33.86;30.41
76858;BME280;65830;0.000;0.000;2023-07-20T11:53:50;98835.94;;;33.90;30.30
76858;BME280;65830;0.000;0.000;2023-07-20T11:56:15;98829.06;;;34.24;29.47
76858;BME280;65830;0.000;0.000;2023-07-20T11:58:41;98836.06;;;34.70;27.82
76858;BME280;65830;0.000;0.000;2023-07-20T12:01:07;98840.09;;;35.22;26.63
76858;BME280;65830;0.000;0.000;2023-07-20T12:03:32;98837.53;;;35.43;26.34
76858;BME280;65830;0.000;0.000;2023-07-20T12:06:05;98830.06;;;35.52;25.84
76858;BME280;65830;0.000;0.000;2023-07-20T12:08:31;98823.59;;;35.39;28.10
76858;BME280;65830;0.000;0.000;2023-07-20T12:10:57;98821.66;;;35.48;26.37
76858;BME280;65830;0.000;0.000;2023-07-20T12:13:23;98812.72;;;35.43;28.06
76858;BME280;65830;0.000;0.000;2023-07-20T12:15:52;98807.66;;;35.88;26.74
76858;BME280;65830;0.000;0.000;2023-07-20T12:18:18;98803.31;;;36.34;25.95
76858;BME280;65830;0.000;0.000;2023-07-20T12:20:47;98794.91;;;36.61;25.97
76858;BME280;65830;0.000;0.000;2023-07-20T12:23:13;98794.16;;;36.51;26.76
76858;BME280;65830;0.000;0.000;2023-07-20T12:28:05;98783.50;;;37.22;24.48
76858;BME280;65830;0.000;0.000;2023-07-20T12:30:31;98779.13;;;37.21;25.53
76858;BME280;65830;0.000;0.000;2023-07-20T12:32:56;98761.41;;;37.55;25.52
76858;BME280;65830;0.000;0.000;2023-07-20T12:35:22;98751.44;;;37.42;25.33
76858;BME280;65830;0.000;0.000;2023-07-20T12:37:47;98758.84;;;37.71;24.70
76858;BME280;65830;0.000;0.000;2023-07-20T12:40:14;98742.34;;;38.20;24.23
76858;BME280;65830;0.000;0.000;2023-07-20T12:42:40;98738.19;;;37.68;25.11
76858;BME280;65830;0.000;0.000;2023-07-20T12:45:05;98742.13;;;37.46;24.88
76858;BME280;65830;0.000;0.000;2023-07-20T12:47:31;98740.50;;;38.12;23.15
76858;BME280;65830;0.000;0.000;2023-07-20T12:49:56;98736.78;;;38.45;22.94
76858;BME280;65830;0.000;0.000;2023-07-20T12:52:22;98744.06;;;38.25;23.79
76858;BME280;65830;0.000;0.000;2023-07-20T12:54:47;98750.66;;;38.69;22.65
76858;BME280;65830;0.000;0.000;2023-07-20T12:57:13;98746.22;;;39.05;22.61
76858;BME280;65830;0.000;0.000;2023-07-20T12:59:38;98750.09;;;39.17;21.78
76858;BME280;65830;0.000;0.000;2023-07-20T13:02:04;98761.81;;;39.38;21.90
76858;BME280;65830;0.000;0.000;2023-07-20T13:04:29;98756.25;;;39.38;22.38
76858;BME280;65830;0.000;0.000;2023-07-20T13:06:55;98763.31;;;39.07;22.18
76858;BME280;65830;0.000;0.000;2023-07-20T13:09:20;98771.31;;;38.84;22.51
76858;BME280;65830;0.000;0.000;2023-07-20T13:11:46;98756.66;;;38.47;22.94
76858;BME280;65830;0.000;0.000;2023-07-20T13:14:11;98762.31;;;38.50;23.12
76858;BME280;65830;0.000;0.000;2023-07-20T13:16:37;98766.13;;;38.70;22.86
76858;BME280;65830;0.000;0.000;2023-07-20T13:19:02;98760.91;;;39.06;22.27
76858;BME280;65830;0.000;0.000;2023-07-20T13:21:28;98767.66;;;39.21;22.60
76858;BME280;65830;0.000;0.000;2023-07-20T13:23:54;98762.16;;;39.49;21.46
76858;BME280;65830;0.000;0.000;2023-07-20T13:26:19;98760.84;;;39.59;21.32
76858;BME280;65830;0.000;0.000;2023-07-20T13:28:45;98766.47;;;39.62;21.34